Time;durP1;ratioP1;P1;durP2;ratioP2;P2;SDS_P1;SDS_P2;PMS_P1;PMS_P2;Temp;Humidity;BMP_temperature;BMP_pressure;BME280_temperature;BME280_humidity;BME280_pressure;Samples;Min_cycle;Max_cycle;Signal;HPM_P1;HPM_P2
2023/04/21 00:01:32;;;;;;;9.93;4.20;;;;;;;14.01;50.90;99089.19;4342622;33;33605;-86
2023/04/21 00:04:00;;;;;;;8.13;4.60;;;;;;;14.00;50.67;99084.00;4334060;33;34277;-84
2023/04/21 00:06:30;;;;;;;10.73;4.40;;;;;;;13.91;51.06;99086.63;4347213;33;33831;-88
2023/04/21 00:08:57;;;;;;;11.82;4.43;;;;;;;13.94;50.67;99084.88;4347305;33;34818;-84
2023/04/21 00:11:25;;;;;;;8.90;4.50;;;;;;;13.74;50.94;99079.69;4346952;33;33475;-86
2023/04/21 00:13:52;;;;;;;10.40;5.05;;;;;;;13.68;50.87;99078.84;4347035;33;33921;-83
2023/04/21 00:16:20;;;;;;;9.68;4.32;;;;;;;13.86;50.50;99084.00;4347663;33;33237;-84
2023/04/21 00:18:47;;;;;;;12.73;4.80;;;;;;;13.86;50.27;99082.28;4348608;33;34127;-88
2023/04/21 00:21:16;;;;;;;13.90;4.35;;;;;;;13.77;50.96;99078.81;4347310;33;33633;-88
2023/04/21 00:23:46;;;;;;;12.23;4.18;;;;;;;13.69;50.87;99085.78;4334554;33;35221;-84
2023/04/21 00:26:13;;;;;;;10.00;4.87;;;;;;;13.79;50.88;99077.09;4347220;33;33779;-87
2023/04/21 00:28:42;;;;;;;12.25;4.62;;;;;;;13.43;51.09;99072.78;4346748;33;34054;-85
2023/04/21 00:31:09;;;;;;;11.68;4.70;;;;;;;13.30;52.15;99082.34;4347150;33;34181;-87
2023/04/21 00:33:37;;;;;;;13.45;4.43;;;;;;;13.24;51.81;99069.31;4347236;33;34893;-87
2023/04/21 00:36:04;;;;;;;11.43;4.62;;;;;;;13.49;51.22;99073.66;4346875;33;34183;-86
2023/04/21 00:38:32;;;;;;;10.40;4.82;;;;;;;13.56;51.27;99074.50;4347204;33;34023;-87
2023/04/21 00:40:59;;;;;;;8.25;4.20;;;;;;;13.39;51.69;99071.91;4347039;33;33201;-84
2023/04/21 00:43:27;;;;;;;12.90;4.55;;;;;;;13.48;51.02;99064.09;4347342;33;34694;-88
2023/04/21 00:45:54;;;;;;;12.50;4.25;;;;;;;13.40;51.05;99073.63;4347226;33;33426;-87
2023/04/21 00:48:22;;;;;;;16.27;5.85;;;;;;;13.35;51.38;99070.19;4346851;33;34540;-88
2023/04/21 00:50:50;;;;;;;12.75;4.65;;;;;;;13.27;50.71;99074.53;4347365;33;33346;-86
2023/04/21 00:53:18;;;;;;;13.32;4.07;;;;;;;13.14;51.09;99063.19;4333616;33;34102;-87
2023/04/21 00:55:46;;;;;;;8.23;4.03;;;;;;;13.04;51.31;99062.31;4333575;33;33856;-87
2023/04/21 00:58:14;;;;;;;9.70;4.20;;;;;;;13.01;51.89;99064.91;4346563;33;35004;-88
2023/04/21 01:00:43;;;;;;;11.00;4.70;;;;;;;12.97;51.84;99073.59;4346771;33;33565;-88
2023/04/21 01:03:11;;;;;;;11.38;4.60;;;;;;;13.12;51.80;99063.19;4347271;33;33797;-87
2023/04/21 01:05:41;;;;;;;11.02;4.75;;;;;;;12.98;51.89;99064.03;4347618;33;35178;-88
2023/04/21 01:08:11;;;;;;;13.45;4.22;;;;;;;12.77;52.52;99063.16;4346455;33;33964;-88
2023/04/21 01:10:38;;;;;;;12.48;4.32;;;;;;;13.01;51.84;99067.50;4333724;33;33504;-88
2023/04/21 01:13:06;;;;;;;11.75;4.10;;;;;;;12.74;53.06;99064.88;4346573;33;34329;-89
2023/04/21 01:15:33;;;;;;;12.60;4.47;;;;;;;12.76;52.64;99065.72;4347317;33;34548;-88
2023/04/21 01:18:02;;;;;;;16.37;4.82;;;;;;;12.93;51.71;99063.19;4346765;33;34107;-87
2023/04/21 01:20:30;;;;;;;11.12;4.35;;;;;;;13.01;51.42;99058.84;4347302;33;34078;-85
2023/04/21 01:22:57;;;;;;;9.32;3.80;;;;;;;12.88;51.79;99068.38;4345782;33;34512;-87
2023/04/21 01:25:27;;;;;;;12.35;4.28;;;;;;;12.69;52.26;99066.56;4346113;33;34137;-88
2023/04/21 01:27:55;;;;;;;13.27;4.03;;;;;;;12.78;51.83;99066.59;4347399;33;33954;-87
2023/04/21 01:30:22;;;;;;;12.60;4.05;;;;;;;12.73;51.73;99065.72;4346962;33;34089;-84
2023/04/21 01:32:50;;;;;;;11.90;4.45;;;;;;;12.90;51.10;99061.44;4346382;33;34766;-88
2023/04/21 01:35:18;;;;;;;11.98;3.85;;;;;;;12.82;51.32;99063.16;4346141;33;33972;-88
2023/04/21 01:37:45;;;;;;;11.23;4.10;;;;;;;12.87;51.27;99053.59;4346708;33;33678;-84
2023/04/21 01:40:13;;;;;;;11.95;4.25;;;;;;;12.87;51.22;99051.88;4340968;33;33042;-84
2023/04/21 01:42:42;;;;;;;10.05;4.37;;;;;;;12.91;51.12;99053.59;4346308;33;33326;-89
2023/04/21 01:45:10;;;;;;;11.15;3.83;;;;;;;12.77;51.20;99051.88;4346764;33;33962;-89
2023/04/21 01:47:38;;;;;;;15.25;3.72;;;;;;;12.66;51.36;99047.50;4346086;33;33891;-89
2023/04/21 01:50:06;;;;;;;14.10;4.22;;;;;;;12.91;50.66;99050.13;4346175;33;33286;-88
2023/04/21 01:52:34;;;;;;;14.52;4.07;;;;;;;12.59;51.41;99045.75;4346747;33;33983;-87
2023/04/21 01:55:02;;;;;;;10.55;3.85;;;;;;;12.76;51.07;99056.19;4347061;33;34849;-89
2023/04/21 01:57:30;;;;;;;11.68;4.62;;;;;;;12.41;52.04;99056.97;4333448;33;34103;-88
2023/04/21 01:59:57;;;;;;;12.45;4.57;;;;;;;12.50;51.71;99056.13;4332864;33;34539;-87
2023/04/21 02:02:26;;;;;;;12.00;4.30;;;;;;;12.66;51.28;99055.31;4346359;33;33994;-83
2023/04/21 02:04:54;;;;;;;8.93;3.80;;;;;;;12.61;51.09;99059.66;4333275;33;33905;-85
2023/04/21 02:07:22;;;;;;;10.98;4.50;;;;;;;12.68;51.06;99057.03;4346569;33;33818;-89
2023/04/21 02:09:49;;;;;;;11.60;3.62;;;;;;;12.42;51.65;99065.63;4346530;33;33092;-88
2023/04/21 02:12:17;;;;;;;8.98;4.05;;;;;;;12.47;51.58;99069.13;4346859;33;34092;-87
2023/04/21 02:14:46;;;;;;;11.45;3.83;;;;;;;12.69;50.87;99058.78;4345803;33;33590;-88
2023/04/21 02:17:15;;;;;;;13.25;4.70;;;;;;;12.53;51.07;99056.13;4346552;33;34068;-88
2023/04/21 02:19:43;;;;;;;10.23;4.37;;;;;;;12.58;50.97;99063.97;4346536;33;33356;-85
2023/04/21 02:22:11;;;;;;;14.80;5.00;;;;;;;12.52;50.96;99059.59;4332977;33;32285;-88
2023/04/21 02:24:39;;;;;;;11.95;3.95;;;;;;;12.61;50.63;99061.34;4346463;33;33848;-87
2023/04/21 02:27:07;;;;;;;12.75;4.22;;;;;;;12.45;50.94;99062.16;4333126;33;33653;-85
2023/04/21 02:29:35;;;;;;;13.23;3.83;;;;;;;12.69;50.61;99066.56;4346414;33;33493;-88
2023/04/21 02:32:02;;;;;;;11.43;4.45;;;;;;;12.39;51.34;99065.63;4346071;33;34943;-85
2023/04/21 02:34:50;;;;;;;11.15;4.57;;;;;;;12.56;50.74;99061.34;4346079;33;34254;-89
2023/04/21 02:37:18;;;;;;;12.15;4.07;;;;;;;12.47;51.05;99066.53;4348160;33;34614;-90
2023/04/21 02:39:45;;;;;;;10.38;4.20;;;;;;;12.47;51.00;99071.72;4347900;33;33171;-85
2023/04/21 02:42:13;;;;;;;11.18;4.03;;;;;;;12.38;51.41;99066.47;4348261;33;33943;-88
2023/04/21 02:44:41;;;;;;;8.65;4.12;;;;;;;12.47;51.18;99061.31;4347830;33;33425;-88
2023/04/21 02:47:09;;;;;;;11.38;4.05;;;;;;;12.39;51.08;99070.84;4347810;33;33837;-90
2023/04/21 02:49:41;;;;;;;13.90;4.10;;;;;;;12.56;50.42;99063.06;4347981;33;34494;-89
2023/04/21 02:52:08;;;;;;;14.02;4.00;;;;;;;12.37;51.04;99062.16;4348054;33;33904;-88
2023/04/21 02:54:36;;;;;;;12.18;3.97;;;;;;;12.41;50.89;99056.09;4347757;33;35206;-89
2023/04/21 02:57:03;;;;;;;13.80;4.25;;;;;;;12.38;50.82;99067.34;4348266;33;33933;-88
2023/04/21 02:59:32;;;;;;;13.98;4.87;;;;;;;12.24;50.86;99065.56;4347913;33;33205;-89
2023/04/21 03:02:00;;;;;;;11.57;4.57;;;;;;;12.21;51.17;99069.03;4346743;33;33835;-90
2023/04/21 03:04:27;;;;;;;9.50;3.45;;;;;;;12.08;51.60;99059.41;4348255;33;34079;-90
2023/04/21 03:06:57;;;;;;;12.90;4.47;;;;;;;11.74;52.39;99061.78;4348449;33;33742;-89
2023/04/21 03:09:24;;;;;;;18.17;4.35;;;;;;;11.78;52.39;99065.28;4347542;33;34625;-86
2023/04/21 03:11:52;;;;;;;11.50;3.95;;;;;;;11.87;52.85;99066.25;4347847;33;34646;-89
2023/04/21 03:14:19;;;;;;;13.35;3.97;;;;;;;11.74;52.44;99066.09;4347543;33;33910;-84
2023/04/21 03:16:49;;;;;;;19.25;4.70;;;;;;;11.93;52.34;99068.88;4348125;33;33960;-86
2023/04/21 03:19:16;;;;;;;11.07;4.28;;;;;;;11.85;52.10;99065.34;4347221;33;33425;-89
2023/04/21 03:21:45;;;;;;;9.75;3.62;;;;;;;12.07;51.80;99058.53;4347230;33;34707;-88
2023/04/21 03:24:13;;;;;;;13.15;3.50;;;;;;;12.07;51.52;99063.75;4348166;33;34050;-89
2023/04/21 03:26:40;;;;;;;12.07;4.57;;;;;;;11.99;51.77;99060.25;4347289;33;34662;-87
2023/04/21 03:29:07;;;;;;;13.35;4.03;;;;;;;12.13;51.19;99062.91;4347222;33;33290;-89
2023/04/21 03:31:35;;;;;;;12.45;4.10;;;;;;;12.02;51.44;99062.87;4347647;33;33858;-84
2023/04/21 03:34:03;;;;;;;12.05;4.37;;;;;;;12.06;50.81;99058.56;4347922;33;34199;-84
2023/04/21 03:36:30;;;;;;;11.20;4.70;;;;;;;11.79;52.25;99060.09;4347803;33;34951;-85
2023/04/21 03:38:58;;;;;;;13.88;3.50;;;;;;;11.77;52.44;99063.53;4347270;33;33411;-88
2023/04/21 03:41:45;;;;;;;14.70;4.65;;;;;;;11.76;51.85;99059.22;4347807;33;34071;-86
2023/04/21 03:44:13;;;;;;;15.57;4.40;;;;;;;11.70;52.11;99067.81;4341618;33;33852;-88
2023/04/21 03:46:40;;;;;;;11.05;4.30;;;;;;;11.62;52.16;99070.34;4346795;32;33956;-89
2023/04/21 03:49:07;;;;;;;11.10;4.55;;;;;;;11.69;52.27;99066.94;4337570;33;33341;-88
2023/04/21 03:51:35;;;;;;;11.05;3.87;;;;;;;11.41;52.70;99070.22;4347137;33;33197;-86
2023/04/21 03:54:02;;;;;;;18.62;5.18;;;;;;;11.54;51.54;99069.44;4347406;33;34059;-87
2023/04/21 03:56:30;;;;;;;9.18;4.25;;;;;;;11.54;52.04;99068.56;4347242;33;33886;-87
2023/04/21 03:58:57;;;;;;;11.43;4.00;;;;;;;11.56;52.22;99077.25;4341610;33;32937;-84
2023/04/21 04:01:25;;;;;;;13.15;4.50;;;;;;;11.27;53.51;99079.63;4347341;33;34084;-85
2023/04/21 04:03:53;;;;;;;13.32;5.28;;;;;;;11.58;52.58;99080.72;4334119;33;34171;-86
2023/04/21 04:06:21;;;;;;;11.38;4.15;;;;;;;11.31;53.20;99084.84;4347595;33;34763;-84
2023/04/21 04:08:48;;;;;;;15.25;5.20;;;;;;;11.41;53.33;99086.66;4347152;33;34106;-87
2023/04/21 04:11:16;;;;;;;11.00;4.40;;;;;;;11.01;54.31;99095.81;4347142;33;33553;-89
2023/04/21 04:13:44;;;;;;;14.50;5.00;;;;;;;11.20;54.49;99097.72;4347230;33;34368;-90
2023/04/21 04:16:11;;;;;;;15.70;4.78;;;;;;;11.18;53.33;99091.66;4333687;33;33837;-85
2023/04/21 04:18:39;;;;;;;13.88;4.40;;;;;;;11.25;53.76;99096.88;4346193;33;33370;-84
2023/04/21 04:21:06;;;;;;;12.88;4.40;;;;;;;11.56;52.91;99105.81;4347313;33;34065;-87
2023/04/21 04:23:34;;;;;;;11.07;4.00;;;;;;;11.92;52.22;99097.44;4347391;33;34083;-88
2023/04/21 04:26:04;;;;;;;13.13;4.00;;;;;;;12.24;51.21;99099.38;4346090;33;33891;-85
2023/04/21 04:28:32;;;;;;;12.23;4.62;;;;;;;12.49;51.05;99098.59;4346670;33;33984;-85
2023/04/21 04:31:00;;;;;;;13.32;4.20;;;;;;;12.98;49.95;99103.94;4332814;33;33825;-86
2023/04/21 04:33:28;;;;;;;11.35;3.78;;;;;;;13.08;50.04;99105.69;4333441;33;34118;-85
2023/04/21 04:35:57;;;;;;;9.95;4.00;;;;;;;13.24;49.31;99108.34;4347318;33;34552;-86
2023/04/21 04:38:24;;;;;;;12.77;4.32;;;;;;;13.29;48.57;99102.28;4346918;33;34285;-88
2023/04/21 04:40:53;;;;;;;9.90;4.28;;;;;;;13.90;48.59;99109.19;4346904;33;34032;-88
2023/04/21 04:43:21;;;;;;;12.88;4.40;;;;;;;14.28;47.87;99106.53;4347133;33;34239;-88
2023/04/21 04:45:48;;;;;;;12.45;4.10;;;;;;;14.77;46.51;99111.56;4346355;33;34488;-89
2023/04/21 04:48:16;;;;;;;9.25;3.80;;;;;;;15.05;46.75;99114.03;4346036;33;34207;-84
2023/04/21 04:50:43;;;;;;;14.27;4.30;;;;;;;15.26;46.43;99107.78;4346789;33;33965;-86
2023/04/21 04:53:11;;;;;;;15.43;4.35;;;;;;;15.41;44.59;99099.81;4346408;33;34386;-89
2023/04/21 04:55:38;;;;;;;11.27;4.12;;;;;;;15.79;44.45;99096.91;4346468;33;33987;-84
2023/04/21 04:58:06;;;;;;;12.82;4.07;;;;;;;16.07;41.51;99096.66;4346714;33;33966;-84
2023/04/21 05:00:33;;;;;;;19.73;4.18;;;;;;;15.88;40.97;99090.75;4347082;33;33981;-88
2023/04/21 05:03:01;;;;;;;13.50;4.30;;;;;;;15.64;40.18;99094.41;4346855;33;35136;-88
2023/04/21 05:05:29;;;;;;;16.83;4.10;;;;;;;15.69;40.92;99086.56;4347534;33;33442;-88
2023/04/21 05:07:56;;;;;;;13.27;3.67;;;;;;;16.20;40.00;99094.75;4333448;33;33271;-87
2023/04/21 05:10:24;;;;;;;11.65;3.75;;;;;;;16.89;39.08;99091.31;4346682;33;33762;-85
2023/04/21 05:12:52;;;;;;;9.38;3.47;;;;;;;16.90;37.53;99090.44;4346691;33;33750;-86
2023/04/21 05:15:19;;;;;;;16.33;3.87;;;;;;;16.57;38.37;99095.19;4346963;33;34207;-84
2023/04/21 05:17:47;;;;;;;19.02;4.10;;;;;;;16.40;38.28;99092.78;4346592;33;34332;-88
2023/04/21 05:20:14;;;;;;;11.57;3.53;;;;;;;16.53;37.44;99098.72;4347110;33;33551;-88
2023/04/21 05:22:42;;;;;;;12.95;3.75;;;;;;;17.10;37.68;99096.25;4346812;33;33818;-85
2023/04/21 05:25:13;;;;;;;15.95;3.78;;;;;;;17.36;37.24;99088.00;4346676;33;34752;-84
2023/04/21 05:27:41;;;;;;;15.23;3.95;;;;;;;17.18;36.11;99088.28;4347072;33;33421;-84
2023/04/21 05:30:09;;;;;;;11.57;4.00;;;;;;;16.59;36.73;99097.78;4333061;33;34122;-86
2023/04/21 05:32:37;;;;;;;11.50;3.30;;;;;;;17.19;36.92;99097.84;4346962;33;34166;-88
2023/04/21 05:35:05;;;;;;;14.73;3.50;;;;;;;16.29;37.52;99099.91;4347260;33;34057;-87
2023/04/21 05:37:33;;;;;;;19.37;3.72;;;;;;;16.57;37.47;99089.09;4346455;33;33562;-84
2023/04/21 05:40:00;;;;;;;12.37;3.45;;;;;;;16.66;37.66;99097.69;4346446;33;33298;-86
2023/04/21 05:42:29;;;;;;;12.32;4.07;;;;;;;16.63;37.34;99100.38;4345663;33;35147;-85
2023/04/21 05:44:58;;;;;;;11.45;3.35;;;;;;;16.78;37.11;99099.31;4345713;33;34065;-85
2023/04/21 05:47:25;;;;;;;13.70;3.53;;;;;;;16.73;36.67;99098.47;4346037;33;33645;-89
2023/04/21 05:49:52;;;;;;;15.88;4.00;;;;;;;16.36;36.98;99101.53;4333590;33;34586;-88
2023/04/21 05:52:20;;;;;;;18.92;3.62;;;;;;;16.47;36.43;99106.66;4346483;33;34083;-87
2023/04/21 05:54:48;;;;;;;18.25;4.43;;;;;;;15.69;38.84;99110.09;4346742;33;34126;-88
2023/04/21 05:57:16;;;;;;;15.23;3.85;;;;;;;15.50;38.50;99123.28;4346940;33;34270;-84
2023/04/21 05:59:44;;;;;;;12.07;3.83;;;;;;;15.95;38.82;99118.56;4345559;33;32749;-85
2023/04/21 06:02:11;;;;;;;15.88;3.90;;;;;;;15.84;37.41;99112.56;4346248;33;33828;-87
2023/04/21 06:04:39;;;;;;;11.02;4.18;;;;;;;16.28;37.78;99113.84;4346720;33;34147;-89
2023/04/21 06:07:08;;;;;;;19.12;4.70;;;;;;;15.74;37.39;99113.53;4346236;33;34584;-88
2023/04/21 06:09:35;;;;;;;12.37;3.90;;;;;;;15.80;37.98;99116.97;4332395;33;33568;-88
2023/04/21 06:12:03;;;;;;;14.98;3.53;;;;;;;15.19;39.57;99114.81;4346294;33;34217;-87
2023/04/21 06:14:31;;;;;;;10.95;3.35;;;;;;;15.53;38.75;99118.03;4346199;33;34203;-89
2023/04/21 06:16:58;;;;;;;11.80;3.70;;;;;;;15.90;38.03;99116.84;4344587;33;33533;-89
2023/04/21 06:19:26;;;;;;;9.88;3.47;;;;;;;15.33;39.00;99112.94;4346352;33;34801;-84
2023/04/21 06:21:53;;;;;;;11.40;3.40;;;;;;;15.64;39.00;99106.59;4345320;33;33862;-85
2023/04/21 06:24:24;;;;;;;16.95;3.70;;;;;;;15.51;39.38;99122.38;4332941;33;34825;-82
2023/04/21 06:26:52;;;;;;;9.40;3.53;;;;;;;15.40;39.30;99113.78;4345702;33;33784;-84
2023/04/21 06:29:19;;;;;;;16.50;4.15;;;;;;;15.42;37.91;99114.63;4344966;33;34666;-87
2023/04/21 06:31:47;;;;;;;11.02;3.87;;;;;;;15.24;38.77;99110.41;4332140;33;33847;-85
2023/04/21 06:34:15;;;;;;;15.95;4.35;;;;;;;15.14;39.34;99120.91;4345750;33;33643;-85
2023/04/21 06:36:42;;;;;;;8.75;3.40;;;;;;;15.09;39.59;99116.59;4345247;33;33531;-85
2023/04/21 06:39:10;;;;;;;11.00;3.85;;;;;;;15.18;39.14;99126.09;4345936;33;34061;-83
2023/04/21 06:41:37;;;;;;;10.98;4.00;;;;;;;15.21;39.86;99117.41;4346095;33;33812;-87
2023/04/21 06:44:05;;;;;;;14.00;3.62;;;;;;;15.54;39.46;99121.50;4345701;33;34790;-85
2023/04/21 06:46:32;;;;;;;14.75;3.83;;;;;;;15.48;39.83;99117.19;4345762;32;34379;-82
2023/04/21 06:49:00;;;;;;;16.42;4.70;;;;;;;15.37;39.19;99119.00;4345944;33;33523;-87
2023/04/21 06:51:27;;;;;;;10.63;3.90;;;;;;;15.86;38.71;99118.63;4345727;33;33931;-87
2023/04/21 06:53:55;;;;;;;10.55;3.33;;;;;;;15.99;37.82;99115.03;4345714;33;34204;-88
2023/04/21 06:56:22;;;;;;;11.90;3.55;;;;;;;15.63;38.01;99117.94;4340387;33;179033;-82
2023/04/21 06:58:50;;;;;;;10.32;4.05;;;;;;;15.58;37.49;99105.78;4345755;33;34089;-86
2023/04/21 07:01:17;;;;;;;13.38;4.18;;;;;;;15.96;37.69;99107.22;4345644;33;35681;-83
2023/04/21 07:03:45;;;;;;;10.63;3.70;;;;;;;16.18;36.98;99102.63;4345791;33;34717;-84
2023/04/21 07:06:13;;;;;;;11.93;3.25;;;;;;;16.10;36.66;99104.47;4326070;33;33939;-86
2023/04/21 07:08:40;;;;;;;12.23;3.87;;;;;;;16.04;37.35;99105.38;4345488;33;33913;-88
2023/04/21 07:11:08;;;;;;;19.87;3.87;;;;;;;16.52;36.51;99103.09;4345466;33;34214;-83
2023/04/21 07:13:35;;;;;;;13.70;3.40;;;;;;;16.63;36.22;99099.47;4345228;33;33723;-89
2023/04/21 07:16:03;;;;;;;15.30;3.53;;;;;;;16.68;35.97;99110.75;4345399;33;33565;-88
2023/04/21 07:18:31;;;;;;;11.93;3.22;;;;;;;17.06;35.83;99098.94;4345146;33;33966;-85
2023/04/21 07:20:59;;;;;;;9.40;2.67;;;;;;;17.52;35.79;99099.94;4345139;33;34958;-87
2023/04/21 07:23:26;;;;;;;10.23;2.85;;;;;;;17.45;35.59;99103.56;4347332;33;33876;-88
2023/04/21 07:25:58;;;;;;;9.55;2.92;;;;;;;17.55;33.89;99100.78;4334446;33;33311;-85
2023/04/21 07:28:25;;;;;;;14.63;3.55;;;;;;;17.92;34.51;99101.06;4347483;33;33958;-86
2023/04/21 07:30:52;;;;;;;16.70;3.62;;;;;;;17.89;33.50;99101.97;4347098;33;34572;-83
2023/04/21 07:33:20;;;;;;;13.98;3.25;;;;;;;18.07;33.05;99106.03;4347653;33;33934;-87
2023/04/21 07:35:48;;;;;;;9.30;3.22;;;;;;;18.00;34.18;99096.53;4347221;33;33157;-85
2023/04/21 07:38:15;;;;;;;11.07;2.87;;;;;;;17.82;35.00;99100.34;4347423;33;33782;-85
2023/04/21 07:40:43;;;;;;;15.32;3.30;;;;;;;17.95;33.97;99104.47;4347202;33;35086;-85
2023/04/21 07:43:10;;;;;;;9.02;2.87;;;;;;;17.66;33.46;99102.34;4347157;33;34094;-88
2023/04/21 07:45:38;;;;;;;9.85;3.30;;;;;;;17.22;34.29;99100.44;4347121;32;33945;-84
2023/04/21 07:48:06;;;;;;;13.65;3.25;;;;;;;17.66;34.67;99106.72;4346866;33;34052;-85
2023/04/21 07:50:35;;;;;;;10.10;3.00;;;;;;;17.61;33.48;99104.16;4347060;32;33979;-89
2023/04/21 07:53:02;;;;;;;7.30;2.85;;;;;;;17.87;34.13;99098.50;4347102;33;34761;-85
2023/04/21 07:55:30;;;;;;;12.93;4.30;;;;;;;18.02;34.21;99112.25;4347069;32;34334;-89
2023/04/21 07:57:57;;;;;;;9.88;3.28;;;;;;;18.34;33.32;99099.38;4347205;33;33814;-88
2023/04/21 08:00:25;;;;;;;12.95;2.92;;;;;;;17.86;34.60;99107.28;4346968;33;33680;-88
2023/04/21 08:02:53;;;;;;;11.85;3.25;;;;;;;17.97;33.07;99104.47;4346780;33;34086;-84
2023/04/21 08:05:20;;;;;;;14.50;3.08;;;;;;;18.07;33.52;99102.50;4347024;33;32894;-88
2023/04/21 08:07:48;;;;;;;12.80;3.28;;;;;;;18.48;33.88;99106.97;4346894;33;34607;-84
2023/04/21 08:10:16;;;;;;;15.60;3.47;;;;;;;18.77;32.63;99110.78;4346866;33;34785;-87
2023/04/21 08:12:44;;;;;;;10.88;3.03;;;;;;;18.35;33.75;99102.88;4333667;33;34353;-88
2023/04/21 08:15:11;;;;;;;10.77;3.10;;;;;;;18.57;34.45;99113.81;4347046;33;33369;-84
2023/04/21 08:17:39;;;;;;;17.55;3.90;;;;;;;18.82;33.76;99112.41;4346807;33;33533;-89
2023/04/21 08:20:07;;;;;;;12.77;2.78;;;;;;;18.69;32.85;99109.16;4333741;33;34049;-87
2023/04/21 08:22:37;;;;;;;13.10;2.70;;;;;;;18.68;33.59;99109.19;4347043;33;34844;-86
2023/04/21 08:25:06;;;;;;;8.75;2.90;;;;;;;18.68;31.99;99106.56;4347035;33;33962;-84
2023/04/21 08:27:36;;;;;;;17.65;3.17;;;;;;;18.23;32.91;99110.09;4347497;33;33788;-88
2023/04/21 08:30:04;;;;;;;15.45;3.12;;;;;;;18.39;33.71;99105.41;4347146;33;34288;-88
2023/04/21 08:32:32;;;;;;;11.55;3.17;;;;;;;18.72;33.70;99103.03;4332758;33;34145;-85
2023/04/21 08:35:00;;;;;;;17.08;2.80;;;;;;;18.94;32.52;99109.53;4346657;33;34668;-84
2023/04/21 08:37:28;;;;;;;16.35;3.20;;;;;;;19.04;31.84;99101.44;4347096;33;33898;-85
2023/04/21 08:39:55;;;;;;;13.93;3.47;;;;;;;18.41;32.48;99097.47;4346856;33;34555;-85
2023/04/21 08:42:23;;;;;;;14.00;3.53;;;;;;;18.48;32.35;99107.81;4346924;33;33617;-88
2023/04/21 08:44:50;;;;;;;10.15;4.03;;;;;;;18.79;31.23;99104.63;4347097;33;33732;-89
2023/04/21 08:47:21;;;;;;;10.68;2.90;;;;;;;19.13;32.19;99093.34;4346624;33;34157;-84
2023/04/21 08:49:50;;;;;;;11.30;3.30;;;;;;;18.23;31.06;99088.22;4333547;33;34869;-87
2023/04/21 08:52:17;;;;;;;16.42;3.15;;;;;;;18.56;31.69;99089.31;4346876;33;34640;-87
2023/04/21 08:54:46;;;;;;;17.90;3.87;;;;;;;18.30;32.38;99097.72;4333598;33;34561;-89
2023/04/21 08:57:14;;;;;;;11.43;2.80;;;;;;;18.30;33.83;99100.34;4333458;33;33974;-84
2023/04/21 08:59:43;;;;;;;10.63;3.00;;;;;;;18.66;31.91;99092.59;4346561;33;33903;-87
2023/04/21 09:02:15;;;;;;;11.60;3.03;;;;;;;18.76;31.63;99093.31;4346630;33;35052;-85
2023/04/21 09:04:45;;;;;;;18.45;3.85;;;;;;;18.80;31.14;99097.59;4346881;33;33573;-83
2023/04/21 09:07:33;;;;;;;15.43;3.53;;;;;;;18.89;31.18;99094.75;4346704;33;33925;-85
2023/04/21 09:10:01;;;;;;;11.65;2.90;;;;;;;18.69;30.97;99087.28;4346675;33;35195;-85
2023/04/21 09:12:29;;;;;;;11.73;3.62;;;;;;;18.58;31.05;99087.50;4346358;33;34233;-85
2023/04/21 09:14:57;;;;;;;8.45;3.30;;;;;;;18.67;30.72;99094.31;4346658;33;33744;-85
2023/04/21 09:17:31;;;;;;;11.75;3.45;;;;;;;18.23;31.30;99096.09;4346486;33;34482;-85
2023/04/21 09:20:20;;;;;;;11.98;3.35;;;;;;;18.35;31.95;99089.75;4333766;33;33880;-88
2023/04/21 09:22:50;;;;;;;17.60;3.83;;;;;;;18.69;31.13;99090.78;4346679;33;34328;-88
2023/04/21 09:25:21;;;;;;;6.87;3.12;;;;;;;18.88;30.44;99087.78;4346811;33;34351;-86
2023/04/21 09:27:48;;;;;;;12.00;4.25;;;;;;;19.42;31.01;99080.38;4346493;33;33783;-84
2023/04/21 09:30:19;;;;;;;11.07;3.70;;;;;;;19.26;29.65;99089.53;4346473;33;33908;-87
2023/04/21 09:32:47;;;;;;;11.95;3.50;;;;;;;19.17;29.93;99079.25;4346433;33;33749;-84
2023/04/21 09:35:14;;;;;;;15.25;5.30;;;;;;;19.57;29.90;99068.59;4346486;33;33365;-87
2023/04/21 09:37:43;;;;;;;13.43;3.30;;;;;;;19.60;29.77;99059.78;4346504;33;34052;-89
2023/04/21 09:40:17;;;;;;;11.45;3.62;;;;;;;19.71;30.58;99070.94;4333227;33;33985;-85
2023/04/21 09:42:44;;;;;;;11.18;4.12;;;;;;;19.81;31.00;99063.66;4346317;33;33440;-87
2023/04/21 09:45:16;;;;;;;7.80;3.12;;;;;;;19.91;29.27;99068.63;4344808;33;34242;-85
2023/04/21 09:48:05;;;;;;;12.82;3.03;;;;;;;19.74;28.78;99060.34;4346460;33;33690;-85
2023/04/21 09:50:33;;;;;;;11.65;3.90;;;;;;;19.70;29.29;99069.22;4346285;33;34553;-84
2023/04/21 09:53:21;;;;;;;10.13;3.80;;;;;;;19.66;30.20;99057.00;4334837;33;34091;-86
2023/04/21 09:55:50;;;;;;;10.27;3.58;;;;;;;20.12;28.81;99055.81;4345980;33;34367;-84
2023/04/21 09:58:19;;;;;;;10.63;3.70;;;;;;;20.11;28.80;99067.22;4332722;33;34985;-85
2023/04/21 10:00:47;;;;;;;20.80;3.80;;;;;;;19.73;29.16;99058.59;4332129;33;34275;-88
2023/04/21 10:03:17;;;;;;;13.80;4.47;;;;;;;19.84;29.70;99058.31;4345947;33;34367;-85
2023/04/21 10:05:44;;;;;;;10.45;3.47;;;;;;;19.57;29.59;99058.09;4332793;33;33492;-87
2023/04/21 10:08:12;;;;;;;14.48;3.92;;;;;;;19.80;28.87;99056.66;4332500;33;34657;-87
2023/04/21 10:10:40;;;;;;;8.40;3.90;;;;;;;20.34;29.46;99046.41;4346220;33;34856;-88
2023/04/21 10:13:13;;;;;;;13.02;4.12;;;;;;;19.41;29.37;99044.47;4345856;33;33170;-88
2023/04/21 10:15:41;;;;;;;14.50;4.85;;;;;;;19.16;29.94;99036.31;4333004;33;33863;-89
2023/04/21 10:18:16;;;;;;;11.57;3.72;;;;;;;19.61;30.06;99041.31;4346380;33;33381;-87
2023/04/21 10:20:57;;;;;;;;;;;;;;;19.33;30.58;99038.53;4346324;33;34296;-85
2023/04/21 10:23:26;;;;;;;11.68;4.40;;;;;;;19.75;31.03;99041.00;4346489;33;34072;-87
2023/04/21 10:26:10;;;;;;;9.48;4.30;;;;;;;19.69;30.09;99047.28;4332995;33;33380;-87
2023/04/21 10:29:02;;;;;;;20.83;4.30;;;;;;;19.39;29.75;99037.50;4346004;33;35389;-86
2023/04/21 10:31:34;;;;;;;14.52;4.28;;;;;;;19.10;29.88;99052.25;4326281;33;34979;-85
2023/04/21 10:34:07;;;;;;;13.43;4.95;;;;;;;19.13;30.83;99046.03;4345909;33;34168;-85
2023/04/21 10:36:44;;;;;;;10.15;4.25;;;;;;;18.70;30.82;99055.75;4345750;33;32980;-84
2023/04/21 10:39:25;;;;;;;17.23;3.90;;;;;;;19.29;32.55;99036.03;4345677;33;34717;-84
2023/04/21 10:42:11;;;;;;;12.20;4.57;;;;;;;20.03;31.15;99030.59;4345166;33;34171;-88
2023/04/21 10:44:42;;;;;;;10.27;4.30;;;;;;;20.40;29.54;99025.13;4345976;33;34049;-88
2023/04/21 10:47:10;;;;;;;10.35;4.47;;;;;;;20.58;28.67;99017.66;4332295;33;33433;-86
2023/04/21 10:49:38;;;;;;;11.20;4.53;;;;;;;20.29;28.80;99021.09;4345692;33;33493;-85
2023/04/21 10:52:07;;;;;;;10.15;3.87;;;;;;;19.96;29.37;99015.00;4330714;33;33775;-84
2023/04/21 10:54:42;;;;;;;10.35;4.00;;;;;;;20.54;28.95;99010.75;4343745;33;33805;-85
2023/04/21 10:57:11;;;;;;;13.15;4.18;;;;;;;20.21;28.75;99012.56;4339778;33;33794;-87
2023/04/21 10:59:40;;;;;;;10.48;4.30;;;;;;;20.64;29.43;99006.91;4319389;33;34298;-88
2023/04/21 11:02:10;;;;;;;12.40;4.45;;;;;;;20.30;28.47;99007.00;4332586;33;34767;-86
2023/04/21 11:04:43;;;;;;;12.02;4.18;;;;;;;20.71;29.13;98992.63;4332673;33;34365;-84
2023/04/21 11:07:15;;;;;;;12.90;4.90;;;;;;;21.40;27.53;99000.09;4332352;33;33216;-83
2023/04/21 11:09:44;;;;;;;15.10;4.40;;;;;;;20.81;27.65;99004.63;4332418;33;33735;-84
2023/04/21 11:12:13;;;;;;;9.18;4.03;;;;;;;20.78;28.10;99004.72;4332497;33;33707;-85
2023/04/21 11:14:44;;;;;;;16.52;4.75;;;;;;;20.53;28.92;98999.34;4332710;33;33619;-86
2023/04/21 11:17:13;;;;;;;9.60;4.57;;;;;;;20.15;28.84;99005.69;4319131;33;34571;-88
2023/04/21 11:19:54;;;;;;;9.30;3.80;;;;;;;20.55;30.44;99000.16;4319180;33;35364;-84
2023/04/21 11:22:23;;;;;;;10.00;4.20;;;;;;;20.34;30.33;99004.28;4332928;33;34016;-83
2023/04/21 11:24:56;;;;;;;13.38;4.60;;;;;;;20.13;29.62;98995.22;4332585;33;33551;-88
2023/04/21 11:27:28;;;;;;;12.82;4.60;;;;;;;20.34;28.50;98996.38;4319057;33;34397;-89
2023/04/21 11:29:56;;;;;;;9.55;4.12;;;;;;;20.93;28.47;98992.81;4319195;33;33880;-87
2023/04/21 11:32:24;;;;;;;13.88;4.82;;;;;;;20.92;28.47;99006.06;4332787;33;33338;-85
2023/04/21 11:34:51;;;;;;;10.80;4.20;;;;;;;20.55;28.44;98994.87;4332432;33;33590;-85